Decoded Metar for KROX (ROSEAU MUNI in MN, USA) (IATA:ROX) | Meteo·Mobile Aviation Weather
aviador You're here:

KROX Decoded Metar

ROSEAU MUNI in MN, USA
Report Time2019-03-20 23:28:00
UTC Time2019-03-20 23:44:47
Flight Rules vfr VFR
Wind230° at 03 kt
W.Decomp.*RWY 24: 2.9 kt HW 0.8 kt LCW
RWY 16: 1.3 kt HW 2.7 kt RCW
W.Rank230° ranks 12
Current wind is below 230° avg. (7.7)
Visibility9999 m
Phenomena:N/A
Clouds:N/A
Expected CloudBase > 1,600 ft AGL from Temp-Dew spread
CeilingNone
Temp03°C (ISA -10)
Dew Point-1°C (75% RH)
AAT-0.2°C
QNH1019 hPa
Density Alt-259 ft
Elevation1,060 ft
Report Wrong Elevation
Raw Report
KROX 202328Z AUTO 23003KT 10SM CLR 03/M01 A3010 RMK AO2=

Extra information for KROX:More info

Metar Taf Metar & Taf Last 4 Metars F.Rules Stats Wind Profile Meteogram Temp Stats Airport Information Weather charts Add Link Nearby VenuesMetar ALERT Operation Metar Decoded Social comments

AIRNAV info for KROX